createdAt,value
2022-11-15T00:01:29.451Z,2.17
2022-11-15T00:03:57.876Z,1.45
2022-11-15T00:06:26.321Z,1.90
2022-11-15T00:08:54.587Z,1.90
2022-11-15T00:11:24.266Z,1.98
2022-11-15T00:13:53.763Z,2.20
2022-11-15T00:16:22.338Z,2.30
2022-11-15T00:18:51.132Z,1.65
2022-11-15T00:21:20.074Z,1.80
2022-11-15T00:23:48.518Z,2.42
2022-11-15T00:26:17.870Z,1.40
2022-11-15T00:28:47.781Z,2.33
2022-11-15T00:31:17.023Z,1.77
2022-11-15T00:33:46.896Z,2.20
2022-11-15T00:36:15.277Z,2.33
2022-11-15T00:38:43.749Z,1.80
2022-11-15T00:41:13.207Z,1.75
2022-11-15T00:43:44.669Z,2.22
2022-11-15T00:46:14.683Z,1.52
2022-11-15T00:48:42.798Z,2.17
2022-11-15T00:51:11.236Z,1.70
2022-11-15T00:53:39.412Z,1.52
2022-11-15T00:56:08.250Z,1.92
2022-11-15T00:58:36.467Z,2.30
2022-11-15T01:01:09.496Z,1.38
2022-11-15T01:03:40.967Z,2.10
2022-11-15T01:06:10.530Z,2.13
2022-11-15T01:08:38.907Z,1.75
2022-11-15T01:11:10.002Z,1.30
2022-11-15T01:13:40.071Z,1.35
2022-11-15T01:16:09.939Z,1.67
2022-11-15T01:18:39.644Z,1.52
2022-11-15T01:21:09.710Z,1.50
2022-11-15T01:23:38.092Z,1.25
2022-11-15T01:26:11.905Z,1.30
2022-11-15T01:28:41.771Z,1.38
2022-11-15T01:31:14.281Z,1.00
2022-11-15T01:33:44.264Z,1.33
2022-11-15T01:36:15.611Z,1.35
2022-11-15T01:38:44.038Z,1.42
2022-11-15T01:41:18.560Z,1.98
2022-11-15T01:43:48.568Z,1.20
2022-11-15T01:46:27.046Z,1.25
2022-11-15T01:48:59.160Z,1.23
2022-11-15T01:51:31.121Z,1.88
2022-11-15T01:54:03.244Z,1.42
2022-11-15T01:56:34.940Z,1.58
2022-11-15T01:59:06.953Z,1.45
2022-11-15T02:01:37.039Z,1.20
2022-11-15T02:04:12.535Z,2.00
2022-11-15T02:06:41.366Z,1.13
2022-11-15T02:09:09.501Z,1.08
2022-11-15T02:11:37.878Z,1.23
2022-11-15T02:14:07.535Z,1.83
2022-11-15T02:16:45.893Z,2.15
2022-11-15T02:19:39.570Z,2.03
2022-11-15T02:22:21.982Z,0.10
2022-11-15T02:25:12.384Z,0.20
2022-11-15T02:28:22.608Z,0.13
2022-11-15T02:30:58.383Z,0.40
2022-11-15T02:33:35.735Z,0.40
2022-11-15T02:36:08.886Z,0.40
2022-11-15T02:38:45.195Z,0.50
2022-11-15T02:41:17.977Z,0.52
2022-11-15T02:44:00.037Z,0.50
2022-11-15T02:46:54.416Z,0.80
2022-11-15T02:49:23.820Z,0.70
2022-11-15T02:51:54.704Z,0.68
2022-11-15T02:54:25.072Z,0.43
2022-11-15T02:56:56.633Z,0.75
2022-11-15T02:59:46.356Z,0.57
2022-11-15T03:02:28.120Z,1.23
2022-11-15T03:04:59.817Z,0.90
2022-11-15T03:07:34.923Z,0.75
2022-11-15T03:10:09.325Z,0.63
2022-11-15T03:12:43.849Z,0.98
2022-11-15T03:15:16.521Z,0.50
2022-11-15T03:17:51.610Z,1.10
2022-11-15T03:20:21.399Z,0.63
2022-11-15T03:22:51.743Z,0.93
2022-11-15T03:25:27.869Z,0.88
2022-11-15T03:27:59.705Z,0.40
2022-11-15T03:30:29.027Z,1.27
2022-11-15T03:33:02.477Z,1.63
2022-11-15T03:35:35.311Z,1.20
2022-11-15T03:38:09.160Z,0.50
2022-11-15T03:40:41.994Z,0.93
2022-11-15T03:43:17.705Z,0.82
2022-11-15T03:45:53.677Z,0.90
2022-11-15T03:48:28.554Z,0.88
2022-11-15T03:50:57.852Z,0.98
2022-11-15T03:53:26.171Z,0.63
2022-11-15T03:55:54.407Z,0.98
2022-11-15T03:58:22.739Z,1.08
2022-11-15T04:00:51.182Z,1.80
2022-11-15T04:03:19.592Z,1.00
2022-11-15T04:05:49.252Z,1.13
2022-11-15T04:08:17.428Z,0.90
2022-11-15T04:10:45.540Z,1.20
2022-11-15T04:13:13.825Z,1.08
2022-11-15T04:15:41.947Z,1.55
2022-11-15T04:18:10.127Z,0.70
2022-11-15T04:20:55.854Z,1.63
2022-11-15T04:23:51.330Z,0.95
2022-11-15T04:26:21.694Z,0.90
2022-11-15T04:29:04.069Z,1.30
2022-11-15T04:31:32.410Z,1.77
2022-11-15T04:34:00.976Z,1.17
2022-11-15T04:36:51.784Z,1.05
2022-11-15T04:39:21.335Z,1.63
2022-11-15T04:41:51.029Z,1.25
2022-11-15T04:44:19.222Z,1.30
2022-11-15T04:46:47.342Z,1.30
2022-11-15T04:49:15.735Z,1.15
2022-11-15T04:51:43.904Z,1.60
2022-11-15T04:54:12.084Z,1.63
2022-11-15T04:56:42.112Z,1.38
2022-11-15T04:59:10.359Z,1.17
2022-11-15T05:01:43.682Z,1.20
2022-11-15T05:04:21.019Z,1.70
2022-11-15T05:06:50.775Z,1.60
2022-11-15T05:09:19.550Z,1.27
2022-11-15T05:11:49.576Z,1.58
2022-11-15T05:14:17.951Z,1.30
2022-11-15T05:16:46.234Z,1.33
2022-11-15T05:19:14.415Z,1.15
2022-11-15T05:21:43.350Z,1.65
2022-11-15T05:24:12.909Z,2.20
2022-11-15T05:26:41.131Z,1.90
2022-11-15T05:29:12.372Z,2.25
2022-11-15T05:31:43.526Z,2.00
2022-11-15T05:34:12.675Z,1.75
2022-11-15T05:36:43.564Z,1.25
2022-11-15T05:39:11.742Z,1.27
2022-11-15T05:41:44.883Z,1.52
2022-11-15T05:44:17.806Z,1.20
2022-11-15T05:46:49.282Z,1.30
2022-11-15T05:49:22.307Z,1.90
2022-11-15T05:51:51.496Z,2.03
2022-11-15T05:54:21.768Z,1.45
2022-11-15T05:56:50.985Z,2.15
2022-11-15T05:59:21.265Z,1.13
2022-11-15T06:01:49.561Z,1.73
2022-11-15T06:04:17.756Z,1.20
2022-11-15T06:06:45.993Z,1.70
2022-11-15T06:09:14.201Z,1.40
2022-11-15T06:11:42.534Z,0.98
2022-11-15T06:14:10.711Z,1.05
2022-11-15T06:16:40.371Z,1.23
2022-11-15T06:19:09.417Z,2.08
2022-11-15T06:21:37.737Z,1.35
2022-11-15T06:24:07.558Z,1.45
2022-11-15T06:26:35.732Z,2.22
2022-11-15T06:29:05.401Z,1.80
2022-11-15T06:31:33.656Z,2.28
2022-11-15T06:34:03.217Z,1.63
2022-11-15T06:36:31.459Z,1.17
2022-11-15T06:38:59.926Z,1.52
2022-11-15T06:41:28.202Z,1.65
2022-11-15T06:43:56.491Z,1.63
2022-11-15T06:46:24.809Z,1.05
2022-11-15T06:48:56.475Z,1.50
2022-11-15T06:51:26.186Z,1.67
2022-11-15T06:54:07.585Z,2.03
2022-11-15T06:56:36.506Z,1.38
2022-11-15T06:59:05.046Z,1.48
2022-11-15T07:01:33.704Z,1.88
2022-11-15T07:04:02.011Z,1.92
2022-11-15T07:06:31.599Z,1.45
2022-11-15T07:08:59.835Z,1.70
2022-11-15T07:11:28.123Z,1.55
2022-11-15T07:13:57.465Z,1.50
2022-11-15T07:16:25.892Z,1.90
2022-11-15T07:18:54.242Z,1.70
2022-11-15T07:21:27.446Z,1.90
2022-11-15T07:23:57.629Z,1.85
2022-11-15T07:26:27.919Z,1.55
2022-11-15T07:28:56.560Z,1.45
2022-11-15T07:31:24.997Z,2.10
2022-11-15T07:33:53.166Z,1.70
2022-11-15T07:36:21.319Z,1.50
2022-11-15T07:38:49.507Z,1.48
2022-11-15T07:41:20.982Z,1.80
2022-11-15T07:43:49.142Z,1.85
2022-11-15T07:46:17.272Z,1.67
2022-11-15T07:48:45.948Z,1.55
2022-11-15T07:51:15.609Z,1.42
2022-11-15T07:53:44.057Z,2.15
2022-11-15T07:56:12.730Z,1.92
2022-11-15T07:58:42.496Z,1.80
2022-11-15T08:01:14.448Z,1.13
2022-11-15T08:03:42.775Z,1.90
2022-11-15T08:06:12.081Z,2.10
2022-11-15T08:08:40.676Z,2.30
2022-11-15T08:11:08.892Z,2.00
2022-11-15T08:13:37.068Z,1.70
2022-11-15T08:16:07.574Z,1.58
2022-11-15T08:18:42.217Z,1.90
2022-11-15T08:21:18.149Z,1.77
2022-11-15T08:24:42.123Z,2.67
2022-11-15T08:27:26.197Z,1.60
2022-11-15T08:30:00.129Z,2.17
2022-11-15T08:32:52.171Z,1.23
2022-11-15T08:35:29.150Z,1.67
2022-11-15T08:37:58.132Z,1.52
2022-11-15T08:40:30.086Z,2.22
2022-11-15T08:43:08.515Z,1.85
2022-11-15T08:45:45.349Z,1.65
2022-11-15T08:48:22.223Z,2.42
2022-11-15T08:50:51.159Z,1.83
2022-11-15T08:53:19.547Z,1.98
2022-11-15T08:55:49.042Z,2.28
2022-11-15T08:58:17.129Z,1.98
2022-11-15T09:00:45.466Z,1.70
2022-11-15T09:03:13.694Z,1.70
2022-11-15T09:05:44.422Z,2.05
2022-11-15T09:08:40.804Z,2.13
2022-11-15T09:11:05.551Z,1.52
2022-11-15T09:13:33.776Z,1.73
2022-11-15T09:16:03.639Z,2.35
2022-11-15T09:18:32.779Z,2.15
2022-11-15T09:21:03.612Z,1.60
2022-11-15T09:23:35.296Z,1.45
2022-11-15T09:26:05.396Z,1.90
2022-11-15T09:28:34.742Z,2.20
2022-11-15T09:31:06.919Z,1.77
2022-11-15T09:33:38.093Z,2.58
2022-11-15T09:36:10.326Z,1.65
2022-11-15T09:38:38.934Z,2.15
2022-11-15T09:41:28.024Z,1.90
2022-11-15T09:44:09.371Z,2.22
2022-11-15T09:46:51.940Z,1.80
2022-11-15T09:49:20.906Z,2.15
2022-11-15T09:51:53.359Z,2.22
2022-11-15T09:57:24.518Z,2.42
2022-11-15T10:00:23.867Z,2.13
2022-11-15T10:03:05.154Z,1.50
2022-11-15T10:05:39.054Z,2.03
2022-11-15T10:08:38.683Z,2.13
2022-11-15T10:14:03.895Z,2.25
2022-11-15T10:17:13.146Z,1.65
2022-11-15T10:19:55.070Z,1.33
2022-11-15T10:22:32.748Z,1.65
2022-11-15T10:25:14.946Z,1.95
2022-11-15T10:27:44.556Z,1.30
2022-11-15T10:30:15.698Z,1.05
2022-11-15T10:32:46.071Z,1.67
2022-11-15T10:35:23.259Z,1.80
2022-11-15T10:37:52.915Z,2.33
2022-11-15T10:40:26.360Z,2.35
2022-11-15T10:43:16.806Z,2.00
2022-11-15T10:45:46.117Z,1.50
2022-11-15T10:48:27.504Z,1.63
2022-11-15T10:50:56.750Z,1.73
2022-11-15T10:53:35.886Z,1.07
2022-11-15T10:56:12.135Z,1.65
2022-11-15T10:58:43.588Z,1.70
2022-11-15T11:01:14.012Z,1.92
2022-11-15T11:03:44.227Z,1.73
2022-11-15T11:08:42.181Z,2.03
2022-11-15T11:11:11.735Z,1.40
2022-11-15T11:13:41.762Z,1.58
2022-11-15T11:16:37.868Z,1.73
2022-11-15T11:19:17.838Z,1.85
2022-11-15T11:21:53.644Z,1.00
2022-11-15T11:24:30.279Z,2.28
2022-11-15T11:27:15.743Z,1.55
2022-11-15T11:29:58.924Z,1.27
2022-11-15T11:33:01.867Z,1.90
2022-11-15T11:35:34.809Z,1.10
2022-11-15T11:38:18.567Z,1.60
2022-11-15T11:40:57.972Z,1.65
2022-11-15T11:43:43.812Z,1.98
2022-11-15T11:46:27.878Z,0.65
2022-11-15T11:49:02.637Z,1.67
2022-11-15T11:51:36.813Z,1.40
2022-11-15T11:54:08.827Z,1.70
2022-11-15T11:56:40.280Z,1.38
2022-11-15T11:59:18.748Z,1.38
2022-11-15T12:01:48.564Z,1.40
2022-11-15T12:04:21.457Z,0.77
2022-11-15T12:06:54.596Z,1.17
2022-11-15T12:09:30.909Z,1.40
2022-11-15T12:12:07.024Z,1.55
2022-11-15T12:14:43.231Z,1.00
2022-11-15T12:17:12.883Z,1.55
2022-11-15T12:19:41.570Z,1.08
2022-11-15T12:22:16.297Z,1.60
2022-11-15T12:24:48.832Z,0.77
2022-11-15T12:27:26.568Z,1.10
2022-11-15T12:30:00.646Z,1.75
2022-11-15T12:32:33.996Z,1.48
2022-11-15T12:35:04.330Z,1.10
2022-11-15T12:38:00.120Z,1.27
2022-11-15T12:40:36.611Z,1.17
2022-11-15T12:43:38.875Z,2.10
2022-11-15T12:46:14.518Z,1.08
2022-11-15T12:48:52.727Z,1.30
2022-11-15T12:51:23.937Z,1.65
2022-11-15T12:53:52.065Z,1.13
2022-11-15T12:56:25.108Z,1.52
2022-11-15T12:58:57.845Z,1.00
2022-11-15T13:02:00.315Z,1.23
2022-11-15T13:04:31.260Z,1.60
2022-11-15T13:07:04.225Z,1.30
2022-11-15T13:10:00.285Z,0.60
2022-11-15T13:12:54.659Z,1.77
2022-11-15T13:15:54.689Z,0.80
2022-11-15T13:18:40.325Z,1.00
2022-11-15T13:21:40.542Z,0.75
2022-11-15T13:26:42.775Z,0.80
2022-11-15T13:29:21.234Z,1.50
2022-11-15T13:31:50.028Z,1.83
2022-11-15T13:34:50.460Z,0.95
2022-11-15T13:37:33.627Z,1.00
2022-11-15T13:40:22.377Z,1.05
2022-11-15T13:42:50.830Z,0.93
2022-11-15T13:45:22.084Z,0.85
2022-11-15T13:47:59.177Z,1.33
2022-11-15T13:50:34.253Z,1.42
2022-11-15T13:53:05.660Z,1.00
2022-11-15T13:55:35.762Z,1.40
2022-11-15T13:58:07.910Z,0.90
2022-11-15T14:00:39.862Z,1.23
2022-11-15T14:03:20.704Z,1.38
2022-11-15T14:06:07.554Z,1.05
2022-11-15T14:08:37.700Z,1.08
2022-11-15T14:13:38.996Z,0.90
2022-11-15T14:16:23.589Z,0.70
2022-11-15T14:18:54.461Z,0.63
2022-11-15T14:21:23.961Z,1.15
2022-11-15T14:23:52.783Z,1.13
2022-11-15T14:26:33.492Z,0.88
2022-11-15T14:29:27.617Z,0.93
2022-11-15T14:31:56.776Z,1.15
2022-11-15T14:34:25.204Z,1.00
2022-11-15T14:36:55.115Z,1.27
2022-11-15T14:39:25.235Z,1.00
2022-11-15T14:41:53.673Z,0.75
2022-11-15T14:44:22.815Z,1.02
2022-11-15T14:46:51.346Z,0.98
2022-11-15T14:49:19.468Z,0.93
2022-11-15T14:51:47.593Z,0.80
2022-11-15T14:54:17.413Z,1.65
2022-11-15T14:56:45.636Z,1.13
2022-11-15T14:59:13.812Z,0.80
2022-11-15T15:01:41.983Z,0.70
2022-11-15T15:04:12.473Z,0.77
2022-11-15T15:06:40.883Z,0.75
2022-11-15T15:09:09.226Z,1.10
2022-11-15T15:11:38.994Z,0.70
2022-11-15T15:14:07.455Z,0.88
2022-11-15T15:16:35.794Z,0.73
2022-11-15T15:19:04.381Z,1.05
2022-11-15T15:21:37.079Z,1.17
2022-11-15T15:24:06.479Z,0.82
2022-11-15T15:26:37.536Z,1.58
2022-11-15T15:29:07.841Z,1.10
2022-11-15T15:34:16.876Z,1.25
2022-11-15T15:36:45.302Z,1.20
2022-11-15T15:39:13.648Z,1.30
2022-11-15T15:41:42.367Z,1.17
2022-11-15T15:44:12.137Z,1.20
2022-11-15T15:46:41.489Z,1.75
2022-11-15T15:49:11.917Z,0.95
2022-11-15T15:51:40.250Z,1.45
2022-11-15T15:54:08.526Z,1.83
2022-11-15T15:56:36.856Z,0.95
2022-11-15T15:59:05.022Z,1.50
2022-11-15T16:01:34.848Z,1.63
2022-11-15T16:04:03.011Z,1.55
2022-11-15T16:06:39.235Z,2.20
2022-11-15T16:09:15.130Z,2.08
2022-11-15T16:11:43.794Z,1.67
2022-11-15T16:14:19.124Z,2.55
2022-11-15T16:16:50.923Z,1.90
2022-11-15T16:19:19.045Z,2.53
2022-11-15T16:21:47.308Z,1.90
2022-11-15T16:24:15.809Z,2.42
2022-11-15T16:26:45.128Z,3.00
2022-11-15T16:29:14.887Z,2.63
2022-11-15T16:31:43.354Z,1.85
2022-11-15T16:34:32.247Z,2.03
2022-11-15T16:37:02.446Z,2.60
2022-11-15T16:39:31.651Z,2.53
2022-11-15T16:42:00.776Z,2.70
2022-11-15T16:44:30.238Z,2.87
2022-11-15T16:46:58.464Z,2.70
2022-11-15T16:49:28.379Z,4.22
2022-11-15T16:51:56.768Z,3.35
2022-11-15T16:54:24.988Z,3.03
2022-11-15T16:56:53.825Z,6.05
2022-11-15T16:59:22.014Z,4.75
2022-11-15T17:01:54.028Z,4.60
2022-11-15T17:04:22.866Z,4.85
2022-11-15T17:06:53.265Z,5.35
2022-11-15T17:09:24.630Z,4.88
2022-11-15T17:11:53.576Z,3.78
2022-11-15T17:14:21.905Z,3.03
2022-11-15T17:16:50.236Z,2.85
2022-11-15T17:19:20.972Z,3.58
2022-11-15T17:21:50.698Z,3.72
2022-11-15T17:24:21.283Z,4.68
2022-11-15T17:26:49.648Z,4.07
2022-11-15T17:29:18.699Z,2.58
2022-11-15T17:31:46.918Z,2.70
2022-11-15T17:34:15.197Z,2.47
2022-11-15T17:36:43.422Z,3.00
2022-11-15T17:39:12.916Z,3.00
2022-11-15T17:41:42.533Z,2.97
2022-11-15T17:44:13.479Z,2.45
2022-11-15T17:46:41.646Z,2.17
2022-11-15T17:49:10.895Z,2.40
2022-11-15T17:51:39.237Z,2.27
2022-11-15T17:54:07.572Z,1.95
2022-11-15T17:56:39.571Z,2.28
2022-11-15T17:59:14.754Z,2.50
2022-11-15T18:01:44.422Z,2.92
2022-11-15T18:04:15.105Z,2.70
2022-11-15T18:06:43.433Z,2.40
2022-11-15T18:09:12.329Z,3.50
2022-11-15T18:11:42.255Z,4.57
2022-11-15T18:14:15.279Z,7.18
2022-11-15T18:16:44.274Z,6.40
2022-11-15T18:19:13.842Z,7.20
2022-11-15T18:21:59.250Z,5.78
2022-11-15T18:24:32.816Z,4.57
2022-11-15T18:27:02.163Z,2.90
2022-11-15T18:29:32.691Z,4.30
2022-11-15T18:32:01.030Z,5.30
2022-11-15T18:34:32.309Z,7.63
2022-11-15T18:37:01.516Z,6.97
2022-11-15T18:39:29.690Z,4.25
2022-11-15T18:41:57.820Z,3.97
2022-11-15T18:44:26.143Z,5.63
2022-11-15T18:46:55.900Z,6.63
2022-11-15T18:49:26.949Z,5.90
2022-11-15T18:51:55.126Z,7.55
2022-11-15T18:57:11.746Z,8.80
2022-11-15T18:59:39.981Z,3.88
2022-11-15T19:02:12.560Z,3.95
2022-11-15T19:04:41.046Z,4.35
2022-11-15T19:07:09.306Z,5.85
2022-11-15T19:09:38.866Z,9.57
2022-11-15T19:12:07.710Z,11.48
2022-11-15T19:14:35.888Z,9.32
2022-11-15T19:17:04.153Z,7.47
2022-11-15T19:19:34.128Z,4.57
2022-11-15T19:22:02.809Z,4.00
2022-11-15T19:24:30.993Z,8.60
2022-11-15T19:26:59.112Z,8.30
2022-11-15T19:29:31.273Z,7.07
2022-11-15T19:31:59.560Z,6.50
2022-11-15T19:34:28.919Z,7.45
2022-11-15T19:36:58.579Z,9.43
2022-11-15T19:39:26.852Z,8.95
2022-11-15T19:41:55.038Z,8.63
2022-11-15T19:44:23.407Z,9.57
2022-11-15T19:46:51.686Z,10.52
2022-11-15T19:49:20.123Z,11.55
2022-11-15T19:51:48.634Z,9.90
2022-11-15T19:54:18.810Z,7.85
2022-11-15T19:59:15.429Z,8.23
2022-11-15T20:01:43.763Z,7.95
2022-11-15T20:04:12.051Z,9.90
2022-11-15T20:06:42.177Z,10.90
2022-11-15T20:09:24.460Z,8.70
2022-11-15T20:12:10.351Z,9.82
2022-11-15T20:14:49.378Z,8.25
2022-11-15T20:17:17.652Z,7.63
2022-11-15T20:19:46.035Z,6.80
2022-11-15T20:22:14.501Z,4.82
2022-11-15T20:24:42.641Z,5.90
2022-11-15T20:27:12.972Z,6.57
2022-11-15T20:29:43.933Z,9.25
2022-11-15T20:32:13.370Z,8.40
2022-11-15T20:34:50.090Z,7.78
2022-11-15T20:37:21.231Z,6.20
2022-11-15T20:39:49.407Z,5.38
2022-11-15T20:42:21.729Z,6.82
2022-11-15T20:44:52.370Z,7.13
2022-11-15T20:47:20.595Z,5.50
2022-11-15T20:49:48.684Z,5.93
2022-11-15T20:52:17.603Z,6.80
2022-11-15T20:54:45.668Z,8.18
2022-11-15T20:57:14.468Z,8.25
2022-11-15T20:59:44.331Z,7.90
2022-11-15T21:02:14.160Z,10.82
2022-11-15T21:04:42.595Z,14.32
2022-11-15T21:07:16.230Z,18.13
2022-11-15T21:10:13.334Z,12.52
2022-11-15T21:12:41.556Z,9.82
2022-11-15T21:15:11.875Z,8.35
2022-11-15T21:17:40.108Z,7.18
2022-11-15T21:20:09.460Z,6.53
2022-11-15T21:22:37.639Z,4.65
2022-11-15T21:25:06.634Z,5.45
2022-11-15T21:27:34.750Z,6.00
2022-11-15T21:30:03.087Z,6.20
2022-11-15T21:32:32.637Z,6.30
2022-11-15T21:35:01.114Z,3.90
2022-11-15T21:37:29.398Z,2.88
2022-11-15T21:39:57.520Z,3.50
2022-11-15T21:42:25.749Z,3.28
2022-11-15T21:44:55.245Z,3.80
2022-11-15T21:47:23.532Z,3.05
2022-11-15T21:49:53.037Z,2.78
2022-11-15T21:52:21.302Z,2.20
2022-11-15T21:54:49.495Z,1.73
2022-11-15T21:57:19.100Z,1.20
2022-11-15T22:00:04.786Z,1.52
2022-11-15T22:02:33.468Z,1.13
2022-11-15T22:05:02.993Z,1.52
2022-11-15T22:07:31.518Z,2.03
2022-11-15T22:09:59.786Z,1.75
2022-11-15T22:12:29.796Z,0.60
2022-11-15T22:17:46.632Z,1.17
2022-11-15T22:20:42.989Z,0.63
2022-11-15T22:23:14.421Z,0.60
2022-11-15T22:25:42.548Z,0.40
2022-11-15T22:28:11.220Z,0.47
2022-11-15T22:30:41.200Z,0.50
2022-11-15T22:33:11.480Z,0.65
2022-11-15T22:35:49.375Z,0.40
2022-11-15T22:38:20.376Z,0.50
2022-11-15T22:40:51.467Z,0.17
2022-11-15T22:43:22.198Z,0.50
2022-11-15T22:45:54.748Z,0.95
2022-11-15T22:48:26.690Z,0.55
2022-11-15T22:50:56.847Z,0.73
2022-11-15T22:53:27.951Z,0.93
2022-11-15T22:55:58.079Z,0.50
2022-11-15T22:58:31.019Z,0.63
2022-11-15T23:01:02.309Z,0.70
2022-11-15T23:03:32.058Z,0.60
2022-11-15T23:06:05.892Z,0.57
2022-11-15T23:08:35.256Z,0.60
2022-11-15T23:11:25.369Z,0.60
2022-11-15T23:13:54.310Z,0.68
2022-11-15T23:16:26.074Z,0.55
2022-11-15T23:18:59.114Z,0.88
2022-11-15T23:21:48.231Z,0.55
2022-11-15T23:24:17.786Z,1.00
2022-11-15T23:26:47.224Z,0.82
2022-11-15T23:29:17.205Z,0.82
2022-11-15T23:32:03.099Z,1.90
2022-11-15T23:34:37.063Z,1.65
2022-11-15T23:37:07.673Z,1.30
2022-11-15T23:39:36.022Z,0.70
2022-11-15T23:42:08.877Z,0.75
2022-11-15T23:44:42.738Z,0.70
2022-11-15T23:47:13.855Z,0.40
2022-11-15T23:49:42.344Z,0.50
2022-11-15T23:52:12.154Z,1.00
2022-11-15T23:54:40.429Z,0.47
2022-11-15T23:57:12.113Z,0.30
2022-11-15T23:59:40.492Z,0.30
